Time;durP1;ratioP1;P1;durP2;ratioP2;P2;SDS_P1;SDS_P2;PMS_P1;PMS_P2;Temp;Humidity;BMP_temperature;BMP_pressure;BME280_temperature;BME280_humidity;BME280_pressure;Samples;Min_cycle;Max_cycle;Signal;HPM_P1;HPM_P2
2021/05/09 00:01:58;;;;;;;3.77;3.10;;;;;;;9.72;85.77;98254.59;4722006;29;103534;-77
2021/05/09 00:04:26;;;;;;;3.77;3.47;;;;;;;9.79;84.86;98253.19;4732801;29;103739;-76
2021/05/09 00:06:55;;;;;;;4.33;2.73;;;;;;;9.82;84.90;98252.94;4729510;29;103284;-77
2021/05/09 00:09:22;;;;;;;3.67;2.70;;;;;;;9.89;83.83;98259.44;4736529;29;103247;-77
2021/05/09 00:11:49;;;;;;;3.53;3.23;;;;;;;9.87;83.68;98250.81;4729319;29;104415;-78
2021/05/09 00:14:17;;;;;;;4.23;3.63;;;;;;;9.44;87.78;98251.50;4739364;29;103312;-77
2021/05/09 00:16:44;;;;;;;7.30;3.90;;;;;;;9.28;88.05;98242.13;4738451;29;106567;-76
2021/05/09 00:19:11;;;;;;;5.40;3.60;;;;;;;9.33;88.67;98237.34;4739205;29;103199;-77
2021/05/09 00:21:39;;;;;;;3.67;3.37;;;;;;;9.43;87.48;98234.84;4738873;29;104143;-77
2021/05/09 00:24:08;;;;;;;4.17;3.53;;;;;;;9.36;88.36;98228.38;4738580;29;104805;-79
2021/05/09 00:26:35;;;;;;;5.43;3.77;;;;;;;9.48;88.06;98221.34;4737982;29;102979;-77
2021/05/09 00:29:02;;;;;;;5.13;3.97;;;;;;;9.48;88.53;98224.81;4738742;29;103146;-77
2021/05/09 00:31:29;;;;;;;4.57;3.93;;;;;;;9.50;88.75;98219.41;4738714;29;103938;-76
2021/05/09 00:33:56;;;;;;;5.17;4.27;;;;;;;9.57;88.80;98215.38;4737479;29;111112;-76
2021/05/09 00:36:25;;;;;;;5.60;4.60;;;;;;;9.44;89.26;98207.53;4731750;29;103159;-78
2021/05/09 00:38:53;;;;;;;4.03;3.60;;;;;;;9.56;88.68;98213.69;4738151;29;103090;-77
2021/05/09 00:41:20;;;;;;;5.63;4.27;;;;;;;9.45;89.75;98206.59;4737809;29;103955;-77
2021/05/09 00:43:47;;;;;;;6.20;4.77;;;;;;;9.43;89.84;98203.19;4736977;29;103745;-77
2021/05/09 00:46:14;;;;;;;5.27;4.77;;;;;;;9.42;90.01;98201.53;4736428;29;103196;-77
2021/05/09 00:48:42;;;;;;;6.33;4.60;;;;;;;9.42;90.44;98201.53;4722273;29;103539;-77
2021/05/09 00:51:09;;;;;;;6.73;5.90;;;;;;;9.36;90.62;98201.16;4735967;29;103349;-77
2021/05/09 00:53:36;;;;;;;5.80;5.20;;;;;;;9.39;90.41;98193.00;4739673;29;104977;-76
2021/05/09 00:56:05;;;;;;;6.00;5.33;;;;;;;9.42;90.59;98196.28;4737381;29;102929;-78
2021/05/09 00:58:37;;;;;;;6.30;5.70;;;;;;;9.49;89.98;98200.09;4721764;29;103258;-78
2021/05/09 01:01:04;;;;;;;6.80;5.70;;;;;;;9.47;90.31;98194.13;4733162;29;103430;-77
2021/05/09 01:03:32;;;;;;;6.97;5.30;;;;;;;9.54;90.11;98200.63;4737466;29;110081;-77
2021/05/09 01:06:00;;;;;;;5.23;4.70;;;;;;;9.70;88.70;98201.13;4721075;29;103132;-77
2021/05/09 01:08:28;;;;;;;4.80;4.37;;;;;;;9.65;89.47;98187.47;4736469;29;103072;-76
2021/05/09 01:10:56;;;;;;;9.27;5.67;;;;;;;9.64;89.24;98191.03;4737224;29;111716;-77
2021/05/09 01:13:24;;;;;;;6.10;5.13;;;;;;;9.58;89.33;98186.22;4721617;29;103825;-77
2021/05/09 01:15:52;;;;;;;6.27;5.17;;;;;;;9.52;89.87;98181.41;4719282;29;103224;-76
2021/05/09 01:18:19;;;;;;;5.70;4.77;;;;;;;9.56;89.66;98190.78;4719737;29;102807;-77
2021/05/09 01:20:47;;;;;;;4.57;4.17;;;;;;;9.66;88.78;98185.63;4719740;29;109491;-77
2021/05/09 01:23:15;;;;;;;6.23;4.73;;;;;;;9.72;87.87;98188.66;4704066;29;104093;-77
2021/05/09 01:25:42;;;;;;;6.17;4.80;;;;;;;9.69;88.36;98186.25;4703657;29;103073;-77
2021/05/09 01:28:11;;;;;;;4.43;4.03;;;;;;;9.60;89.33;98184.31;4719779;29;102704;-77
2021/05/09 01:30:38;;;;;;;4.80;4.30;;;;;;;9.65;88.81;98191.88;4719484;29;104069;-76
2021/05/09 01:33:06;;;;;;;5.27;3.43;;;;;;;9.73;88.03;98179.78;4719433;29;105062;-77
2021/05/09 01:35:34;;;;;;;6.00;4.20;;;;;;;9.62;88.52;98179.78;4696828;29;103134;-77
2021/05/09 01:38:04;;;;;;;5.83;4.80;;;;;;;9.58;88.49;98174.84;4719294;29;102778;-77
2021/05/09 01:40:32;;;;;;;4.53;4.00;;;;;;;9.59;88.77;98182.66;4718879;29;103357;-77
2021/05/09 01:43:00;;;;;;;6.73;4.70;;;;;;;9.60;88.68;98175.59;4719238;29;103912;-78
2021/05/09 01:45:27;;;;;;;5.93;4.73;;;;;;;9.40;89.62;98177.09;4725582;29;102949;-76
2021/05/09 01:47:54;;;;;;;4.73;4.23;;;;;;;9.59;88.88;98177.38;4718161;29;103586;-78
2021/05/09 01:50:21;;;;;;;5.17;4.40;;;;;;;9.73;87.69;98177.16;4713623;29;109858;-77
2021/05/09 01:52:48;;;;;;;4.10;3.67;;;;;;;9.82;87.30;98179.06;4721079;29;104309;-77
2021/05/09 01:55:21;;;;;;;4.93;3.83;;;;;;;9.78;87.57;98175.00;4728906;29;103088;-76
2021/05/09 01:58:00;;;;;;;5.00;3.80;;;;;;;9.81;87.41;98177.41;4719296;29;103817;-77
2021/05/09 02:00:41;;;;;;;3.70;3.40;;;;;;;9.82;87.23;98172.97;4702092;29;107039;-78
2021/05/09 02:03:17;;;;;;;4.87;3.90;;;;;;;9.69;87.70;98170.44;4711243;29;107553;-77
2021/05/09 02:05:45;;;;;;;4.40;4.00;;;;;;;9.70;87.44;98180.03;4706120;29;103314;-77
2021/05/09 02:08:12;;;;;;;5.03;4.53;;;;;;;9.44;89.42;98178.53;4719248;29;104335;-78
2021/05/09 02:10:46;;;;;;;4.53;4.13;;;;;;;9.53;89.36;98177.00;4718191;29;103558;-77
2021/05/09 02:13:13;;;;;;;4.57;4.17;;;;;;;9.54;89.29;98174.25;4708649;29;103926;-78
2021/05/09 02:15:53;;;;;;;4.63;4.20;;;;;;;9.61;88.77;98175.44;4719567;29;104011;-78
2021/05/09 02:18:20;;;;;;;4.57;3.57;;;;;;;9.63;88.89;98164.78;4702453;29;103390;-78
2021/05/09 02:20:49;;;;;;;5.33;3.50;;;;;;;9.62;88.60;98178.94;4717755;29;103928;-77
2021/05/09 02:23:16;;;;;;;5.10;4.03;;;;;;;9.62;88.00;98171.88;4719784;29;103836;-77
2021/05/09 02:25:44;;;;;;;4.47;3.87;;;;;;;9.68;87.66;98170.56;4717397;29;102700;-77
2021/05/09 02:28:14;;;;;;;3.93;3.30;;;;;;;9.77;87.30;98173.31;4717791;29;104111;-78
2021/05/09 02:30:42;;;;;;;5.90;4.50;;;;;;;9.66;87.67;98167.19;4716973;29;103869;-76
2021/05/09 02:33:12;;;;;;;4.73;3.57;;;;;;;9.59;88.30;98171.25;4719294;29;104197;-77
2021/05/09 02:35:41;;;;;;;3.50;3.07;;;;;;;9.70;87.95;98173.91;4711936;29;103131;-76
2021/05/09 02:38:09;;;;;;;4.30;3.30;;;;;;;9.59;88.50;98169.47;4717490;29;103155;-78
2021/05/09 02:40:36;;;;;;;4.20;3.50;;;;;;;9.61;88.59;98171.97;4717001;29;112851;-76
2021/05/09 02:43:03;;;;;;;4.20;3.20;;;;;;;9.70;88.07;98166.84;4718427;29;103891;-76
2021/05/09 02:45:31;;;;;;;3.77;3.33;;;;;;;9.76;87.54;98162.88;4725359;29;103827;-78
2021/05/09 02:47:58;;;;;;;3.53;3.23;;;;;;;9.67;88.06;98163.59;4718603;29;103053;-77
2021/05/09 02:50:26;;;;;;;4.20;3.57;;;;;;;9.66;87.85;98164.53;4710671;29;103659;-77
2021/05/09 02:52:53;;;;;;;5.00;3.73;;;;;;;9.75;87.11;98167.31;4720594;29;103689;-78
2021/05/09 02:55:20;;;;;;;4.70;3.57;;;;;;;9.52;88.65;98170.88;4727912;29;102919;-79
2021/05/09 02:57:47;;;;;;;6.93;4.07;;;;;;;9.57;88.67;98174.00;4717706;29;102964;-77
2021/05/09 03:00:15;;;;;;;6.47;3.43;;;;;;;9.65;88.20;98169.00;4720406;29;105076;-78
2021/05/09 03:03:05;;;;;;;3.67;3.37;;;;;;;9.70;88.07;98169.47;4715213;29;103891;-77
2021/05/09 03:05:32;;;;;;;3.80;3.40;;;;;;;9.76;87.89;98166.38;4703461;29;102609;-78
2021/05/09 03:07:59;;;;;;;3.27;2.97;;;;;;;9.81;87.54;98160.72;4702475;29;102906;-77
2021/05/09 03:10:26;;;;;;;3.17;2.60;;;;;;;9.84;87.19;98171.88;4701582;29;104065;-77
2021/05/09 03:12:53;;;;;;;3.33;2.80;;;;;;;9.92;86.13;98168.66;4715843;29;104051;-78
2021/05/09 03:15:22;;;;;;;4.13;3.40;;;;;;;9.85;86.44;98163.00;4734858;29;103052;-77
2021/05/09 03:17:49;;;;;;;4.40;4.00;;;;;;;9.69;88.19;98165.16;4735162;29;102895;-78
2021/05/09 03:20:17;;;;;;;6.33;4.33;;;;;;;9.37;89.93;98165.94;4719717;29;104983;-77
2021/05/09 03:22:44;;;;;;;4.63;4.20;;;;;;;9.35;90.40;98159.94;4736504;29;103778;-77
2021/05/09 03:25:11;;;;;;;4.07;3.67;;;;;;;9.31;90.56;98154.91;4736431;29;103531;-77
2021/05/09 03:27:38;;;;;;;5.50;4.00;;;;;;;9.28;90.58;98162.19;4736510;29;102714;-79
2021/05/09 03:30:06;;;;;;;3.63;3.33;;;;;;;9.42;89.40;98164.63;4737224;29;104009;-77
2021/05/09 03:32:33;;;;;;;5.50;3.70;;;;;;;9.62;87.71;98157.84;4748710;29;104395;-78
2021/05/09 03:35:02;;;;;;;3.50;2.93;;;;;;;9.65;87.58;98166.34;4739189;29;103171;-78
2021/05/09 03:37:30;;;;;;;5.03;3.30;;;;;;;9.65;87.38;98161.09;4728008;29;103015;-77
2021/05/09 03:39:57;;;;;;;3.30;3.00;;;;;;;9.68;87.54;98166.13;4738678;29;104990;-78
2021/05/09 03:42:24;;;;;;;3.43;3.13;;;;;;;9.56;88.14;98167.06;4737877;29;104316;-79
2021/05/09 03:44:51;;;;;;;4.00;3.60;;;;;;;9.55;88.16;98154.81;4738056;29;103062;-78
2021/05/09 03:47:25;;;;;;;4.23;3.50;;;;;;;9.59;87.92;98161.56;4738830;29;103154;-77
2021/05/09 03:49:53;;;;;;;5.07;3.30;;;;;;;9.64;87.24;98159.41;4737059;29;103515;-79
2021/05/09 03:52:20;;;;;;;3.10;2.80;;;;;;;9.67;87.55;98159.16;4738957;29;104399;-77
2021/05/09 03:54:49;;;;;;;4.23;3.60;;;;;;;9.64;87.35;98162.03;4724386;29;103602;-78
2021/05/09 03:57:16;;;;;;;3.37;3.07;;;;;;;9.62;87.85;98156.03;4736498;29;106750;-79
2021/05/09 03:59:43;;;;;;;4.23;3.83;;;;;;;9.62;87.82;98158.69;4738501;29;105498;-77
2021/05/09 04:02:10;;;;;;;5.03;3.13;;;;;;;9.56;87.81;98147.75;4739094;29;103245;-78
2021/05/09 04:04:37;;;;;;;4.77;3.80;;;;;;;9.49;88.13;98150.00;4738231;29;105840;-80
2021/05/09 04:07:04;;;;;;;4.73;3.60;;;;;;;9.47;88.38;98146.66;4738218;29;103190;-81
2021/05/09 04:09:31;;;;;;;3.87;3.47;;;;;;;9.56;87.77;98145.13;4737548;29;103382;-79
2021/05/09 04:11:59;;;;;;;4.43;3.87;;;;;;;9.46;88.69;98138.88;4735805;29;103776;-79
2021/05/09 04:14:26;;;;;;;5.10;4.03;;;;;;;9.56;88.08;98137.19;4725480;29;103576;-79
2021/05/09 04:16:53;;;;;;;6.30;3.80;;;;;;;9.68;87.40;98133.63;4720616;29;102892;-79
2021/05/09 04:19:20;;;;;;;4.20;3.80;;;;;;;9.67;87.00;98139.84;4721013;29;104335;-81
2021/05/09 04:21:47;;;;;;;4.13;3.73;;;;;;;9.76;86.64;98147.91;4720776;29;103722;-77
2021/05/09 04:24:14;;;;;;;3.70;3.23;;;;;;;9.87;86.89;98142.63;4722294;29;102755;-77
2021/05/09 04:26:41;;;;;;;3.60;3.30;;;;;;;9.87;86.51;98132.09;4727817;29;103001;-80
2021/05/09 04:29:09;;;;;;;4.33;3.13;;;;;;;9.96;85.65;98137.59;4704907;29;104126;-81
2021/05/09 04:31:36;;;;;;;3.13;2.83;;;;;;;10.08;85.25;98139.25;4720332;29;103917;-78
2021/05/09 04:34:04;;;;;;;3.70;3.03;;;;;;;10.09;86.10;98135.66;4720780;29;103227;-77
2021/05/09 04:36:31;;;;;;;3.30;2.77;;;;;;;10.19;85.74;98134.84;4720713;29;103208;-81
2021/05/09 04:39:02;;;;;;;3.53;3.23;;;;;;;10.20;86.42;98135.69;4704220;29;112442;-81
2021/05/09 04:41:28;;;;;;;3.60;3.30;;;;;;;10.15;86.10;98128.13;4722914;29;104471;-82
2021/05/09 04:43:57;;;;;;;4.13;3.47;;;;;;;10.21;86.35;98132.94;4733629;29;102560;-81
2021/05/09 04:46:25;;;;;;;4.07;3.50;;;;;;;10.30;84.77;98131.34;4723681;29;103316;-80
2021/05/09 04:48:52;;;;;;;3.10;2.80;;;;;;;10.44;84.55;98128.44;4723896;29;105381;-77
2021/05/09 04:51:19;;;;;;;3.30;3.00;;;;;;;10.57;83.59;98123.84;4726636;29;103591;-78
2021/05/09 04:53:46;;;;;;;3.03;2.40;;;;;;;10.63;84.38;98118.06;4720348;29;108152;-78
2021/05/09 04:56:13;;;;;;;2.60;2.20;;;;;;;10.72;83.51;98125.22;4718667;29;103016;-79
2021/05/09 04:58:42;;;;;;;2.30;2.10;;;;;;;10.83;83.82;98124.38;4734019;29;105152;-79
2021/05/09 05:01:11;;;;;;;3.00;2.70;;;;;;;10.92;83.06;98129.72;4722273;29;103140;-78
2021/05/09 05:03:40;;;;;;;2.33;2.03;;;;;;;11.01;82.47;98131.59;4719789;29;103113;-74
2021/05/09 05:06:07;;;;;;;3.00;2.70;;;;;;;11.04;82.41;98127.88;4720226;29;103199;-81
2021/05/09 05:08:34;;;;;;;2.97;2.00;;;;;;;11.13;82.10;98132.38;4718233;29;103979;-85
2021/05/09 05:11:04;;;;;;;2.40;2.20;;;;;;;11.18;81.55;98124.06;4718141;29;103857;-85
2021/05/09 05:13:32;;;;;;;2.27;2.13;;;;;;;11.17;81.29;98132.97;4733338;29;102982;-85
2021/05/09 05:16:01;;;;;;;2.30;2.10;;;;;;;11.24;80.49;98134.13;4740556;29;102754;-85
2021/05/09 05:18:28;;;;;;;2.40;2.20;;;;;;;11.36;79.38;98127.81;4737884;29;104336;-85
2021/05/09 05:21:01;;;;;;;3.27;2.97;;;;;;;11.40;79.86;98134.50;4736424;29;103347;-85
2021/05/09 05:23:29;;;;;;;2.20;2.00;;;;;;;11.51;79.93;98134.44;4738129;29;103050;-85
2021/05/09 05:25:56;;;;;;;1.83;1.53;;;;;;;11.54;79.17;98132.38;4737771;29;103534;-85
2021/05/09 05:28:24;;;;;;;3.43;2.57;;;;;;;11.50;79.90;98135.44;4737845;29;104013;-85
2021/05/09 05:30:52;;;;;;;5.10;2.90;;;;;;;11.33;79.99;98133.38;4736980;29;103911;-85
2021/05/09 05:33:27;;;;;;;4.27;3.23;;;;;;;11.34;79.89;98135.88;4740625;29;103496;-85
2021/05/09 05:35:55;;;;;;;3.10;2.90;;;;;;;11.41;80.60;98141.50;4734018;29;103293;-85
2021/05/09 05:38:23;;;;;;;3.17;2.87;;;;;;;11.59;80.45;98140.75;4738098;29;103907;-85
2021/05/09 05:40:54;;;;;;;3.40;3.10;;;;;;;11.59;81.25;98137.31;4736676;29;103835;-85
2021/05/09 05:43:22;;;;;;;2.67;2.47;;;;;;;11.83;80.44;98137.88;4736858;29;103077;-85
2021/05/09 05:45:53;;;;;;;2.40;2.20;;;;;;;11.97;78.87;98134.88;4733673;29;102879;-84
2021/05/09 05:48:21;;;;;;;2.70;2.10;;;;;;;12.16;79.05;98134.09;4736739;29;103868;-84
2021/05/09 05:50:49;;;;;;;2.20;2.00;;;;;;;12.34;78.34;98131.66;4739061;29;103232;-84
2021/05/09 05:53:18;;;;;;;4.63;3.10;;;;;;;12.46;78.44;98120.78;4735631;29;103208;-85
2021/05/09 05:55:45;;;;;;;3.30;3.00;;;;;;;12.38;78.77;98141.81;4733005;29;103000;-84
2021/05/09 05:58:13;;;;;;;2.90;2.70;;;;;;;12.36;78.45;98133.19;4736747;29;104212;-84
2021/05/09 06:00:40;;;;;;;3.03;2.73;;;;;;;12.42;76.79;98134.47;4737204;29;104224;-84
2021/05/09 06:03:07;;;;;;;2.60;2.40;;;;;;;12.54;76.47;98133.38;4737069;29;103288;-84
2021/05/09 06:05:34;;;;;;;2.63;2.10;;;;;;;12.73;75.10;98136.06;4732322;29;102976;-87
2021/05/09 06:08:01;;;;;;;3.40;3.10;;;;;;;12.81;75.77;98133.53;4747765;29;103828;-85
2021/05/09 06:10:29;;;;;;;2.30;2.10;;;;;;;12.98;75.12;98127.56;4737458;29;102920;-85
2021/05/09 06:12:57;;;;;;;3.83;2.47;;;;;;;13.17;74.15;98132.88;4735936;29;107657;-84
2021/05/09 06:15:24;;;;;;;2.13;1.90;;;;;;;13.26;73.83;98128.56;4737124;29;102896;-84
2021/05/09 06:17:51;;;;;;;2.20;2.00;;;;;;;13.50;72.58;98130.78;4737309;29;104063;-77
2021/05/09 06:20:19;;;;;;;2.47;2.03;;;;;;;13.56;73.15;98127.56;4736970;29;103806;-85
2021/05/09 06:22:46;;;;;;;2.30;2.10;;;;;;;13.56;72.31;98132.84;4737268;29;103165;-84
2021/05/09 06:25:13;;;;;;;2.40;2.20;;;;;;;13.75;72.95;98127.50;4744421;29;102871;-85
2021/05/09 06:27:41;;;;;;;2.20;2.00;;;;;;;13.89;72.25;98127.03;4737477;29;104071;-85
2021/05/09 06:30:09;;;;;;;2.27;2.00;;;;;;;13.99;71.43;98124.31;4738303;29;103798;-84
2021/05/09 06:32:37;;;;;;;4.13;2.03;;;;;;;14.10;70.82;98121.47;4740779;29;103148;-84
2021/05/09 06:35:05;;;;;;;1.63;1.50;;;;;;;14.28;70.44;98120.56;4736328;29;103157;-84
2021/05/09 06:37:33;;;;;;;2.00;1.73;;;;;;;14.54;70.16;98125.22;4736487;29;104317;-85
2021/05/09 06:40:05;;;;;;;3.13;1.90;;;;;;;14.67;68.98;98110.56;4736553;29;104498;-86
2021/05/09 06:42:35;;;;;;;1.70;1.60;;;;;;;14.81;68.85;98106.56;4735714;29;102943;-85
2021/05/09 06:45:08;;;;;;;2.03;1.83;;;;;;;15.05;67.97;98115.59;4738094;29;103120;-85
2021/05/09 06:47:39;;;;;;;2.10;1.80;;;;;;;15.01;66.96;98114.25;4732697;29;104877;-85
2021/05/09 06:50:07;;;;;;;2.97;2.10;;;;;;;15.13;66.92;98117.47;4740271;29;104153;-79
2021/05/09 06:52:34;;;;;;;2.10;1.90;;;;;;;15.32;66.00;98122.66;4737294;29;103983;-78
2021/05/09 06:55:01;;;;;;;2.10;1.90;;;;;;;15.38;64.96;98114.03;4736257;29;103661;-80
2021/05/09 06:57:29;;;;;;;2.30;1.90;;;;;;;15.63;64.09;98115.09;4738410;29;103293;-76
2021/05/09 06:59:56;;;;;;;1.83;1.63;;;;;;;15.79;63.72;98103.69;4738018;29;111271;-80
2021/05/09 07:02:27;;;;;;;2.50;1.60;;;;;;;15.95;63.37;98114.44;4734683;29;103716;-81
2021/05/09 07:04:55;;;;;;;3.80;1.80;;;;;;;16.09;62.67;98101.34;4734163;29;103525;-76
2021/05/09 07:07:22;;;;;;;2.10;1.90;;;;;;;16.21;61.97;98105.41;4734749;29;103311;-77
2021/05/09 07:09:52;;;;;;;2.07;1.60;;;;;;;16.44;60.52;98105.69;4732066;29;103941;-78
2021/05/09 07:12:20;;;;;;;1.90;1.70;;;;;;;16.63;59.94;98100.09;4734581;29;102740;-77
2021/05/09 07:14:48;;;;;;;1.43;1.30;;;;;;;16.81;59.76;98098.09;4738896;29;103516;-80
2021/05/09 07:17:16;;;;;;;1.63;1.50;;;;;;;16.97;58.43;98091.13;4726317;29;104329;-79
2021/05/09 07:19:45;;;;;;;2.10;1.57;;;;;;;17.07;58.13;98099.81;4726397;29;103405;-78
2021/05/09 07:22:15;;;;;;;2.17;1.47;;;;;;;17.38;58.70;98095.47;4739135;29;103103;-77
2021/05/09 07:24:46;;;;;;;4.90;1.57;;;;;;;17.79;58.17;98099.81;4738542;29;104030;-79
2021/05/09 07:27:13;;;;;;;2.33;1.20;;;;;;;18.20;56.19;98097.84;4734418;29;102838;-80
2021/05/09 07:29:40;;;;;;;1.97;1.57;;;;;;;18.67;55.52;98089.78;4735103;29;104350;-79
2021/05/09 07:32:08;;;;;;;2.80;1.70;;;;;;;18.55;54.30;98085.84;4743324;29;103351;-78
2021/05/09 07:34:35;;;;;;;1.83;1.20;;;;;;;18.83;54.55;98084.34;4736183;29;103123;-78
2021/05/09 07:37:03;;;;;;;1.97;1.63;;;;;;;18.94;53.61;98081.25;4734458;29;104589;-81
2021/05/09 07:39:29;;;;;;;3.80;1.53;;;;;;;19.16;53.30;98076.91;4729870;29;103824;-74
2021/05/09 07:41:57;;;;;;;1.50;1.20;;;;;;;19.48;52.95;98073.16;4743864;29;103161;-75
2021/05/09 07:44:24;;;;;;;1.98;1.50;;;;;;;19.58;51.75;98077.25;4733755;29;103309;-70
2021/05/09 07:46:52;;;;;;;2.80;1.48;;;;;;;19.75;51.81;98069.03;4733304;29;103424;-80
2021/05/09 07:49:22;;;;;;;2.47;1.50;;;;;;;20.15;51.30;98069.38;4744181;29;103865;-84
2021/05/09 07:51:50;;;;;;;4.15;1.60;;;;;;;20.64;50.44;98066.09;4735039;29;102628;-81
2021/05/09 07:54:17;;;;;;;2.90;1.30;;;;;;;20.81;48.90;98059.47;4735248;29;104479;-81
2021/05/09 07:56:44;;;;;;;1.38;1.13;;;;;;;21.26;49.19;98055.63;4733776;29;104505;-82
2021/05/09 07:59:12;;;;;;;2.88;1.13;;;;;;;21.18;48.34;98058.44;4739430;29;103864;-81
2021/05/09 08:01:39;;;;;;;1.70;1.25;;;;;;;21.41;47.94;98050.16;4734674;29;102669;-80
2021/05/09 08:04:06;;;;;;;1.75;1.30;;;;;;;21.65;47.41;98053.25;4723201;29;103368;-79
2021/05/09 08:06:33;;;;;;;1.70;1.23;;;;;;;22.20;46.98;98038.94;4729924;29;104690;-78
2021/05/09 08:09:00;;;;;;;1.10;1.00;;;;;;;22.35;46.91;98034.22;4718958;29;106349;-78
2021/05/09 08:11:28;;;;;;;1.70;1.20;;;;;;;22.49;46.27;98030.53;4734626;29;104103;-80
2021/05/09 08:13:55;;;;;;;1.48;1.20;;;;;;;22.83;45.84;98028.78;4738312;29;103453;-80
2021/05/09 08:16:22;;;;;;;1.52;1.00;;;;;;;23.13;45.41;98023.88;4734643;29;104575;-80
2021/05/09 08:18:49;;;;;;;1.85;1.30;;;;;;;23.04;44.95;98025.94;4737491;29;103201;-80
2021/05/09 08:21:16;;;;;;;1.42;1.10;;;;;;;23.83;42.89;98025.94;4737654;29;103350;-78
2021/05/09 08:23:44;;;;;;;2.75;1.42;;;;;;;24.18;43.34;98019.22;4752024;29;102745;-76
2021/05/09 08:26:12;;;;;;;5.47;1.50;;;;;;;24.21;43.92;98024.19;4748272;29;103888;-76
2021/05/09 08:29:23;;;;;;;1.55;1.02;;;;;;;24.51;44.38;98014.50;4742975;29;102943;-76
2021/05/09 08:35:54;;;;;;;1.23;1.13;;;;;;;24.94;40.87;98008.47;4743336;29;103153;-78
2021/05/09 08:43:36;;;;;;;2.25;1.40;;;;;;;25.73;40.81;98001.38;4736935;29;103028;-81
2021/05/09 08:46:05;;;;;;;2.33;1.35;;;;;;;26.23;41.12;98002.09;4735315;29;102963;-80
2021/05/09 08:48:35;;;;;;;1.23;1.13;;;;;;;26.61;40.45;97992.88;4737717;29;103286;-81
2021/05/09 08:51:04;;;;;;;1.70;1.15;;;;;;;26.90;41.06;97990.19;4737378;29;104836;-80
2021/05/09 08:53:31;;;;;;;3.83;1.40;;;;;;;26.34;40.71;97998.63;4719401;29;104842;-82
2021/05/09 08:55:58;;;;;;;2.40;1.27;;;;;;;26.29;39.76;97987.66;4736016;29;103058;-82
2021/05/09 08:58:26;;;;;;;1.60;1.50;;;;;;;26.92;39.20;97992.66;4746301;29;103318;-79
2021/05/09 09:00:53;;;;;;;1.95;1.60;;;;;;;26.92;38.68;97984.53;4740164;29;104131;-80
2021/05/09 09:03:21;;;;;;;2.78;1.30;;;;;;;27.35;38.35;97978.81;4736539;29;103708;-85
2021/05/09 09:05:50;;;;;;;1.42;1.30;;;;;;;27.31;38.23;97977.66;4736113;29;103812;-81
2021/05/09 09:08:18;;;;;;;2.92;1.55;;;;;;;27.62;37.79;97969.22;4736981;29;103076;-83
2021/05/09 09:10:47;;;;;;;1.25;1.15;;;;;;;28.05;38.51;97961.50;4736794;29;103969;-81
2021/05/09 09:13:23;;;;;;;2.22;1.25;;;;;;;28.25;35.88;97965.69;4733546;29;103784;-83
2021/05/09 09:15:54;;;;;;;1.63;1.23;;;;;;;27.87;37.94;97963.53;4736096;29;102808;-84
2021/05/09 09:18:27;;;;;;;1.50;1.40;;;;;;;27.92;36.59;97961.75;4737013;29;103006;-83
2021/05/09 09:20:54;;;;;;;4.35;1.35;;;;;;;28.55;37.07;97950.81;4719005;29;108013;-84
2021/05/09 09:23:21;;;;;;;3.22;1.35;;;;;;;27.93;38.04;97946.28;4732444;29;103998;-82
2021/05/09 09:25:53;;;;;;;2.53;1.85;;;;;;;28.16;36.91;97941.63;4740480;29;103475;-82
2021/05/09 09:28:20;;;;;;;3.08;1.67;;;;;;;28.84;38.99;97948.09;4749429;29;103116;-80
2021/05/09 09:30:49;;;;;;;4.25;1.50;;;;;;;29.19;37.17;97938.63;4753479;29;103238;-81
2021/05/09 09:33:17;;;;;;;1.90;1.50;;;;;;;29.11;35.97;97936.34;4737287;29;104980;-85
2021/05/09 09:35:47;;;;;;;1.60;1.17;;;;;;;28.81;36.67;97933.13;4748921;29;102958;-81
2021/05/09 09:38:24;;;;;;;1.65;1.30;;;;;;;28.80;36.09;97925.22;4738686;29;103172;-82
2021/05/09 09:41:22;;;;;;;2.00;1.10;;;;;;;28.74;36.90;97916.16;4725149;29;107351;-83
2021/05/09 09:44:07;;;;;;;2.15;1.10;;;;;;;29.05;35.62;97918.31;4684969;29;104273;-83
2021/05/09 09:46:36;;;;;;;3.13;1.45;;;;;;;29.44;35.63;97916.50;4730054;29;103351;-85
2021/05/09 09:49:26;;;;;;;1.52;1.42;;;;;;;29.68;34.71;97896.16;4737959;29;103401;-83
2021/05/09 09:51:55;;;;;;;1.50;1.33;;;;;;;30.22;35.30;97902.59;4735040;29;104333;-85
2021/05/09 09:54:34;;;;;;;1.63;1.20;;;;;;;29.94;33.43;97900.06;4726471;29;104470;-84
2021/05/09 09:57:02;;;;;;;2.08;1.27;;;;;;;29.75;35.19;97885.91;4733923;29;103372;-83
2021/05/09 09:59:29;;;;;;;3.35;1.52;;;;;;;29.84;34.80;97884.41;4735702;29;103457;-85
2021/05/09 10:01:57;;;;;;;2.88;2.40;;;;;;;30.37;34.52;97872.78;4736941;29;103986;-86
2021/05/09 10:04:24;;;;;;;2.05;1.70;;;;;;;29.99;33.46;97867.44;4739310;29;103789;-84
2021/05/09 10:06:51;;;;;;;2.38;2.17;;;;;;;30.07;33.06;97869.72;4738623;29;103356;-84
2021/05/09 10:09:24;;;;;;;2.17;1.23;;;;;;;30.23;33.45;97866.06;4730663;29;103431;-84
2021/05/09 10:11:54;;;;;;;1.88;1.10;;;;;;;30.37;32.29;97864.63;4728473;29;105043;-84
2021/05/09 10:14:22;;;;;;;3.65;1.75;;;;;;;29.97;32.97;97866.88;4717432;29;105437;-82
2021/05/09 10:16:51;;;;;;;1.17;1.08;;;;;;;29.97;32.86;97856.00;4732636;29;102919;-84
2021/05/09 10:19:23;;;;;;;3.25;2.00;;;;;;;29.33;32.64;97844.00;4748537;29;103522;-84
2021/05/09 10:21:51;;;;;;;1.98;1.70;;;;;;;29.80;33.04;97849.81;4740544;29;104032;-84
2021/05/09 10:24:21;;;;;;;2.25;1.60;;;;;;;30.03;33.77;97848.72;4730045;29;104340;-85
2021/05/09 10:26:55;;;;;;;4.15;1.30;;;;;;;29.98;32.85;97849.44;4729089;29;104089;-83
2021/05/09 10:29:50;;;;;;;1.90;1.50;;;;;;;30.36;31.80;97843.06;4730302;29;103400;-83
2021/05/09 10:32:49;;;;;;;1.52;1.13;;;;;;;30.26;29.52;97834.81;4707295;29;105216;-83
2021/05/09 10:35:33;;;;;;;1.27;0.93;;;;;;;30.51;31.57;97834.25;4699000;29;108208;-81
2021/05/09 10:38:03;;;;;;;1.10;1.00;;;;;;;30.38;29.16;97836.31;4710317;29;103324;-80
2021/05/09 10:40:32;;;;;;;2.22;1.00;;;;;;;30.54;30.12;97836.47;4712081;29;105447;-79
2021/05/09 10:43:30;;;;;;;2.00;0.77;;;;;;;30.58;28.27;97840.31;4709037;29;107074;-81
2021/05/09 10:45:58;;;;;;;0.90;0.90;;;;;;;30.92;29.11;97836.22;4708257;29;105338;-85
2021/05/09 10:48:31;;;;;;;1.63;1.00;;;;;;;30.62;28.66;97838.72;4709926;29;102946;-82
2021/05/09 10:51:29;;;;;;;3.15;1.10;;;;;;;30.24;28.06;97845.13;4700925;29;103240;-81
2021/05/09 10:54:17;;;;;;;2.33;0.80;;;;;;;30.36;29.07;97833.00;4698386;29;104039;-83
2021/05/09 10:56:44;;;;;;;1.92;1.15;;;;;;;30.50;28.29;97827.16;4731217;29;105540;-82
2021/05/09 10:59:13;;;;;;;1.27;1.10;;;;;;;30.66;28.99;97827.03;4735436;29;106925;-81
2021/05/09 11:01:40;;;;;;;2.33;0.88;;;;;;;30.24;28.55;97829.59;4735180;29;103411;-82
2021/05/09 11:04:08;;;;;;;2.70;0.95;;;;;;;30.52;28.16;97822.25;4735522;29;103906;-82
2021/05/09 11:06:43;;;;;;;2.55;2.00;;;;;;;30.86;28.28;97818.19;4732541;29;103327;-82
2021/05/09 11:09:11;;;;;;;16.92;15.13;;;;;;;30.70;28.42;97819.16;4735139;29;103456;-80
2021/05/09 11:12:01;;;;;;;6.93;6.25;;;;;;;30.51;27.88;97812.47;4735621;29;102800;-81
2021/05/09 11:14:37;;;;;;;6.95;6.38;;;;;;;30.99;28.40;97807.69;4735629;29;111275;-81
2021/05/09 11:17:14;;;;;;;11.82;10.95;;;;;;;30.97;28.48;97806.28;4735039;29;103887;-86
2021/05/09 11:19:48;;;;;;;2.22;1.92;;;;;;;31.07;27.77;97809.09;4722645;29;103548;-82
2021/05/09 11:22:20;;;;;;;2.65;2.25;;;;;;;31.88;27.35;97798.59;4735301;29;103066;-83
2021/05/09 11:25:00;;;;;;;1.73;1.60;;;;;;;31.81;26.94;97798.03;4735085;29;107872;-82
2021/05/09 11:27:29;;;;;;;1.27;1.13;;;;;;;31.67;27.23;97800.44;4734853;29;108456;-81
2021/05/09 11:29:59;;;;;;;1.50;1.02;;;;;;;31.24;27.17;97784.38;4735569;29;103220;-82
2021/05/09 11:32:27;;;;;;;1.98;1.48;;;;;;;31.32;28.65;97786.59;4734718;29;103041;-82
2021/05/09 11:35:00;;;;;;;1.77;1.20;;;;;;;30.99;26.97;97793.25;4729754;29;104690;-83
2021/05/09 11:37:35;;;;;;;1.30;1.15;;;;;;;31.35;26.40;97781.44;4742995;29;103450;-83
2021/05/09 11:40:05;;;;;;;1.60;1.48;;;;;;;31.43;26.66;97777.38;4736155;29;103878;-86
2021/05/09 11:42:32;;;;;;;2.92;1.00;;;;;;;31.09;26.89;97771.47;4734651;29;102905;-84
2021/05/09 11:45:00;;;;;;;2.60;1.25;;;;;;;31.51;27.08;97772.28;4733990;29;104506;-80
2021/05/09 11:47:29;;;;;;;1.70;1.10;;;;;;;31.54;27.10;97777.19;4732430;29;104219;-85
2021/05/09 11:49:59;;;;;;;1.45;0.88;;;;;;;31.30;26.70;97767.75;4734162;29;103124;-88